Upstream stations:
SHEF ID: TIFM7 Elk River near Tiff City, Mo
STATION TYPE:
Regulating: Stage = 15.00, Flow = 21304
PRECIP STAGE STAGE(2) RIV-FLOW BAT-LOAD
in ft ft cfs volt
Ccp-Rev Ccp-Rev Ccp-Rev Ccp-Rev Ccp-Rev
(US/Central)
04/04 00:00 0.00 5.47 5.44 1647 11.48
04/04 01:00 0.00 5.45 5.43 1626 11.48
04/04 02:00 0.08 5.45 5.42 1626 11.48
04/04 03:00 0.06 5.43 5.42 1605 11.46
04/04 04:00 0.20 5.45 5.41 1626 11.45
04/04 05:00 0.00 5.43 5.42 1605 11.45
04/04 06:00 0.08 5.43 5.41 1605 11.43
04/04 07:00 0.30 5.45 5.42 1626 11.40
04/04 08:00 0.00 5.44 5.42 1616 11.45
04/04 09:00 0.00 5.42 5.41 1595 11.76
04/04 10:00 0.00 5.43 5.41 1605 12.37
04/04 11:00 0.00 5.42 5.41 1595 12.39
04/04 12:00 0.00 5.42 5.40 1595 12.34
04/04 13:00 0.01 5.42 5.40 1595 12.25
04/04 14:00 0.00 5.43 5.42 1605 12.23
04/04 15:00 0.00 5.44 5.43 1616 12.31
04/04 16:00 0.00 5.45 5.43 1626 12.35
04/04 17:00 0.00 5.46 5.44 1636 12.34
04/04 18:00 0.00 5.47 5.45 1647 12.34
04/04 19:00 0.00 5.49 5.48 1668 12.04
04/04 20:00 0.00 5.51 5.48 1689 11.78
04/04 21:00 0.00 5.51 5.50 1689 11.65
04/04 22:00 0.00 5.54 5.51 1720 11.62
04/04 23:00 0.00 5.54 5.51 1720 11.60